Time;durP1;ratioP1;P1;durP2;ratioP2;P2;SDS_P1;SDS_P2;PMS_P1;PMS_P2;Temp;Humidity;BMP_temperature;BMP_pressure;BME280_temperature;BME280_humidity;BME280_pressure;Samples;Min_cycle;Max_cycle;Signal;HPM_P1;HPM_P2
2023/11/18 00:00:33;;;;;;;0.50;0.50;;;;;;;3.80;84.84;94646.33;110682;1273;22934;-80
2023/11/18 00:03:21;;;;;;;0.40;0.40;;;;;;;3.78;84.19;94642.69;110725;1273;22835;-81
2023/11/18 00:05:49;;;;;;;0.40;0.30;;;;;;;3.76;84.44;94646.17;110549;1273;22159;-81
2023/11/18 00:08:17;;;;;;;0.80;0.30;;;;;;;3.72;83.69;94647.27;110720;1273;22169;-80
2023/11/18 00:10:45;;;;;;;0.20;0.20;;;;;;;3.69;83.69;94653.37;110701;1273;22145;-80
2023/11/18 00:13:13;;;;;;;0.40;0.30;;;;;;;3.64;83.58;94651.66;110705;1273;22125;-79
2023/11/18 00:15:42;;;;;;;0.70;0.50;;;;;;;3.54;83.93;94658.52;110688;1273;22218;-81
2023/11/18 00:18:11;;;;;;;0.50;0.40;;;;;;;3.43;84.74;94659.45;110695;1273;22811;-80
2023/11/18 00:20:39;;;;;;;0.40;0.30;;;;;;;3.35;84.04;94663.68;110685;1273;22249;-80
2023/11/18 00:23:07;;;;;;;0.50;0.20;;;;;;;3.26;84.28;94666.50;110726;1262;22354;-79
2023/11/18 00:25:36;;;;;;;0.30;0.20;;;;;;;3.22;84.21;94669.30;110710;1273;22161;-79
2023/11/18 00:28:07;;;;;;;0.40;0.20;;;;;;;3.14;84.64;94671.42;110724;1273;22187;-80
2023/11/18 00:30:35;;;;;;;0.30;0.20;;;;;;;3.13;85.31;94672.66;110715;1273;22251;-81
2023/11/18 00:33:03;;;;;;;0.50;0.20;;;;;;;3.21;85.88;94673.31;110704;1273;22109;-78
2023/11/18 00:35:33;;;;;;;0.20;0.20;;;;;;;3.28;85.68;94670.66;110615;1260;22098;-81
2023/11/18 00:38:02;;;;;;;0.30;0.30;;;;;;;3.26;85.17;94671.73;110717;1273;22121;-80
2023/11/18 00:40:31;;;;;;;0.20;0.20;;;;;;;3.18;85.47;94674.38;110715;1273;22281;-81
2023/11/18 00:42:59;;;;;;;0.20;0.20;;;;;;;3.20;85.42;94674.70;110612;1273;22344;-80
2023/11/18 00:45:28;;;;;;;0.20;0.20;;;;;;;3.25;85.14;94675.89;110580;1273;22136;-80
2023/11/18 00:47:58;;;;;;;0.40;0.30;;;;;;;3.26;85.41;94680.23;110687;1273;22262;-80
2023/11/18 00:50:26;;;;;;;0.20;0.20;;;;;;;3.28;85.53;94683.70;110575;1273;22121;-81
2023/11/18 00:52:54;;;;;;;0.10;0.10;;;;;;;3.28;85.52;94689.27;110723;1273;22117;-81
2023/11/18 00:55:22;;;;;;;0.40;0.20;;;;;;;3.31;86.03;94692.21;110715;1260;22234;-81
2023/11/18 00:57:51;;;;;;;0.30;0.20;;;;;;;3.38;85.91;94694.61;110716;1273;22129;-81
2023/11/18 01:00:22;;;;;;;0.30;0.20;;;;;;;3.40;85.54;94695.46;110720;1273;22121;-80
2023/11/18 01:02:51;;;;;;;0.20;0.20;;;;;;;3.40;85.56;94695.45;110720;1273;22127;-81
2023/11/18 01:05:20;;;;;;;0.10;0.10;;;;;;;3.43;85.33;94700.31;110566;1273;22984;-80
2023/11/18 01:07:48;;;;;;;0.10;0.10;;;;;;;3.45;85.06;94699.60;110755;1273;22158;-81
2023/11/18 01:10:16;;;;;;;0.30;0.10;;;;;;;3.48;85.15;94696.80;110714;1266;22953;-81
2023/11/18 01:12:45;;;;;;;0.10;0.10;;;;;;;3.49;84.96;94701.33;110712;1273;22144;-81
2023/11/18 01:15:14;;;;;;;0.30;0.10;;;;;;;3.44;84.51;94700.65;110539;1273;22113;-81
2023/11/18 01:17:42;;;;;;;0.10;0.10;;;;;;;3.41;84.79;94699.28;110723;1273;22106;-81
2023/11/18 01:20:11;;;;;;;0.20;0.10;;;;;;;3.36;84.65;94700.70;110604;1273;22193;-80
2023/11/18 01:22:41;;;;;;;0.20;0.00;;;;;;;3.36;84.75;94702.44;110711;1273;22100;-80
2023/11/18 01:25:10;;;;;;;0.30;0.20;;;;;;;3.31;84.53;94701.77;110712;1273;22128;-80
2023/11/18 01:27:39;;;;;;;0.30;0.10;;;;;;;3.23;84.59;94706.84;110748;1273;22145;-80
2023/11/18 01:30:09;;;;;;;0.10;0.10;;;;;;;3.15;84.99;94704.09;110607;1273;22116;-81
2023/11/18 01:32:39;;;;;;;0.10;0.00;;;;;;;3.10;84.88;94711.61;110551;1273;22197;-80
2023/11/18 01:35:10;;;;;;;0.10;0.10;;;;;;;3.08;85.10;94712.81;110696;1273;22966;-80
2023/11/18 01:37:39;;;;;;;0.30;0.10;;;;;;;3.15;85.63;94720.09;110646;1273;22232;-81
2023/11/18 01:40:08;;;;;;;0.10;0.10;;;;;;;3.13;85.37;94719.40;110704;1273;22738;-81
2023/11/18 01:42:37;;;;;;;0.20;0.10;;;;;;;3.13;85.47;94722.19;110591;1273;22088;-80
2023/11/18 01:45:08;;;;;;;0.10;0.10;;;;;;;3.15;85.59;94724.78;110626;1273;22283;-81
2023/11/18 01:47:36;;;;;;;0.20;0.10;;;;;;;3.18;85.61;94725.28;110585;1273;22865;-81
2023/11/18 01:50:08;;;;;;;0.10;0.10;;;;;;;3.17;85.82;94728.25;110718;1273;22276;-81
2023/11/18 01:52:37;;;;;;;0.10;0.10;;;;;;;3.18;85.59;94732.05;110612;1273;22201;-80
2023/11/18 01:55:06;;;;;;;0.10;0.10;;;;;;;3.17;85.14;94734.84;110703;1273;22297;-79
2023/11/18 01:57:36;;;;;;;0.10;0.10;;;;;;;3.14;85.44;94732.60;110580;1273;22135;-82
2023/11/18 02:00:06;;;;;;;0.00;0.00;;;;;;;3.15;85.42;94733.63;110552;1273;22136;-81
2023/11/18 02:02:39;;;;;;;0.20;0.00;;;;;;;3.18;85.48;94739.54;110702;1273;22679;-79
2023/11/18 02:05:08;;;;;;;0.20;0.10;;;;;;;3.19;85.14;94740.91;110722;1273;22913;-81
2023/11/18 02:07:37;;;;;;;0.20;0.10;;;;;;;3.17;85.19;94744.58;110573;1273;22241;-80
2023/11/18 02:10:08;;;;;;;0.40;0.10;;;;;;;3.17;85.06;94747.02;110588;1273;22117;-81
2023/11/18 02:12:48;;;;;;;0.10;0.10;;;;;;;3.13;84.80;94746.85;110701;1273;22275;-80
2023/11/18 02:15:19;;;;;;;0.10;0.10;;;;;;;3.07;85.13;94751.05;110713;1273;22217;-81
2023/11/18 02:17:49;;;;;;;0.10;0.00;;;;;;;3.00;85.20;94751.58;110562;1273;22490;-79
2023/11/18 02:20:20;;;;;;;0.50;0.20;;;;;;;2.96;84.91;94753.86;110754;1273;22171;-79
2023/11/18 02:22:50;;;;;;;1.20;0.10;;;;;;;2.90;85.27;94757.67;110604;1273;22118;-81
2023/11/18 02:25:19;;;;;;;0.10;0.10;;;;;;;2.86;85.41;94763.09;110593;1273;22186;-81
2023/11/18 02:27:48;;;;;;;0.10;0.10;;;;;;;2.81;85.63;94768.66;110586;1273;22127;-80
2023/11/18 02:30:18;;;;;;;0.20;0.10;;;;;;;2.74;85.79;94770.23;110609;1273;22099;-81
2023/11/18 02:33:07;;;;;;;0.10;0.10;;;;;;;2.65;85.59;94775.29;110621;1273;23024;-81
2023/11/18 02:35:48;;;;;;;0.10;0.10;;;;;;;2.59;85.68;94782.23;110638;1273;22268;-81
2023/11/18 02:38:22;;;;;;;0.20;0.20;;;;;;;2.56;85.84;94786.40;110612;1273;22154;-80
2023/11/18 02:40:53;;;;;;;1.70;0.30;;;;;;;2.47;86.25;94784.85;110617;1273;22179;-80
2023/11/18 02:43:21;;;;;;;0.10;0.10;;;;;;;2.43;86.56;94789.71;110713;1273;22213;-79
2023/11/18 02:45:51;;;;;;;0.30;0.20;;;;;;;2.38;86.49;94792.67;110586;1273;23117;-79
2023/11/18 02:48:19;;;;;;;0.50;0.30;;;;;;;2.35;86.42;94801.17;110571;1273;22351;-81
2023/11/18 02:50:47;;;;;;;0.30;0.10;;;;;;;2.34;86.81;94802.73;110692;1269;22279;-80
2023/11/18 02:53:15;;;;;;;0.30;0.30;;;;;;;2.35;86.78;94803.95;110708;1273;22253;-80
2023/11/18 02:55:43;;;;;;;0.20;0.10;;;;;;;2.32;86.66;94807.60;110595;1273;22138;-81
2023/11/18 02:58:11;;;;;;;0.20;0.20;;;;;;;2.33;86.68;94810.90;110722;1273;22298;-81
2023/11/18 03:00:40;;;;;;;0.50;0.30;;;;;;;2.34;86.59;94812.98;110698;1273;22915;-80
2023/11/18 03:03:08;;;;;;;0.20;0.10;;;;;;;2.38;86.53;94812.80;110637;1273;22875;-81
2023/11/18 03:05:36;;;;;;;0.40;0.20;;;;;;;2.40;86.31;94819.40;110554;1273;22122;-81
2023/11/18 03:08:06;;;;;;;0.30;0.10;;;;;;;2.38;86.15;94820.77;110716;1273;22866;-81
2023/11/18 03:10:35;;;;;;;0.00;0.00;;;;;;;2.39;85.85;94822.52;110718;1273;22118;-80
2023/11/18 03:13:03;;;;;;;0.10;0.10;;;;;;;2.39;85.48;94824.25;110704;1273;22121;-81
2023/11/18 03:15:31;;;;;;;0.20;0.10;;;;;;;2.38;85.59;94826.69;110718;1273;22279;-80
2023/11/18 03:17:59;;;;;;;0.20;0.10;;;;;;;2.33;85.25;94826.86;110608;1273;23383;-80
2023/11/18 03:20:28;;;;;;;0.10;0.00;;;;;;;2.30;85.39;94831.89;110639;1273;22171;-79
2023/11/18 03:23:01;;;;;;;0.40;0.10;;;;;;;2.30;85.35;94830.48;110727;1273;22976;-79
2023/11/18 03:25:29;;;;;;;0.10;0.10;;;;;;;2.31;85.46;94836.23;110686;1273;23070;-80
2023/11/18 03:27:57;;;;;;;0.30;0.10;;;;;;;2.32;85.48;94836.74;110585;1273;22313;-79
2023/11/18 03:30:25;;;;;;;0.20;0.10;;;;;;;2.28;85.13;94837.78;110713;1273;22177;-81
2023/11/18 03:32:54;;;;;;;0.30;0.20;;;;;;;2.28;85.23;94841.42;110577;1273;22299;-79
2023/11/18 03:35:23;;;;;;;0.40;0.10;;;;;;;2.26;85.13;94840.73;110749;1273;22124;-80
2023/11/18 03:37:52;;;;;;;0.50;0.20;;;;;;;2.21;84.90;94845.93;110737;1273;22115;-78
2023/11/18 03:40:20;;;;;;;1.00;0.30;;;;;;;2.18;84.78;94848.52;110704;1273;22180;-80
2023/11/18 03:42:48;;;;;;;0.20;0.10;;;;;;;2.14;84.93;94856.69;110599;1273;22125;-79
2023/11/18 03:45:18;;;;;;;0.10;0.10;;;;;;;2.09;84.94;94859.43;110576;1273;22119;-80
2023/11/18 03:47:47;;;;;;;0.10;0.10;;;;;;;1.98;85.14;94863.75;110729;1273;23145;-77
2023/11/18 03:50:16;;;;;;;0.10;0.10;;;;;;;1.96;85.23;94861.14;110723;1273;22730;-79
2023/11/18 03:52:44;;;;;;;1.10;0.40;;;;;;;1.92;85.61;94867.55;110723;1273;22776;-80
2023/11/18 03:55:12;;;;;;;1.60;0.50;;;;;;;1.88;85.59;94869.09;110727;1273;22296;-79
2023/11/18 03:57:40;;;;;;;1.90;0.60;;;;;;;1.84;85.75;94870.12;110703;1273;22147;-79
2023/11/18 04:00:11;;;;;;;2.60;1.00;;;;;;;1.80;85.72;94870.29;110556;1273;22180;-80
2023/11/18 04:02:40;;;;;;;1.80;0.60;;;;;;;1.78;85.89;94870.27;110554;1273;22139;-78
2023/11/18 04:05:09;;;;;;;1.50;0.50;;;;;;;1.78;85.77;94872.04;110556;1273;22143;-80
2023/11/18 04:07:41;;;;;;;0.50;0.30;;;;;;;1.79;85.79;94873.23;110575;1273;23049;-80
2023/11/18 04:10:10;;;;;;;0.70;0.20;;;;;;;1.79;85.53;94871.50;110607;1273;22833;-81
2023/11/18 04:14:57;;;;;;;1.20;0.60;;;;;;;1.76;85.94;94875.83;103650;1304;545471;-80
2023/11/18 04:17:28;;;;;;;0.90;0.30;;;;;;;1.74;85.87;94878.77;106195;1287;24402;-79
2023/11/18 04:19:56;;;;;;;0.20;0.10;;;;;;;1.72;85.63;94877.54;106241;1287;22555;-81
2023/11/18 04:22:25;;;;;;;0.60;0.20;;;;;;;1.70;85.73;94877.02;106305;1287;22551;-81
2023/11/18 04:24:53;;;;;;;0.50;0.20;;;;;;;1.67;85.92;94882.73;106161;1287;24372;-80
2023/11/18 04:27:21;;;;;;;1.30;0.50;;;;;;;1.69;85.70;94885.52;106157;1287;24292;-82
2023/11/18 04:29:50;;;;;;;0.30;0.20;;;;;;;1.67;85.87;94886.54;106639;1276;22679;-82
2023/11/18 04:32:19;;;;;;;0.20;0.10;;;;;;;1.67;85.99;94891.91;106612;1260;22530;-81
2023/11/18 04:34:49;;;;;;;0.40;0.20;;;;;;;1.64;85.92;94892.42;106604;1275;22531;-81
2023/11/18 04:37:17;;;;;;;0.50;0.20;;;;;;;1.64;86.16;94898.14;106727;1276;25316;-80
2023/11/18 04:39:46;;;;;;;0.60;0.30;;;;;;;1.68;86.15;94898.33;106641;1276;22523;-81
2023/11/18 04:42:15;;;;;;;0.70;0.20;;;;;;;1.70;85.66;94896.44;106615;1276;22530;-82
2023/11/18 04:44:43;;;;;;;0.30;0.20;;;;;;;1.64;85.59;94899.55;106690;1276;22648;-81
2023/11/18 04:47:12;;;;;;;0.90;0.30;;;;;;;1.61;85.62;94905.41;106627;1276;24219;-81
2023/11/18 04:49:40;;;;;;;1.60;0.60;;;;;;;1.60;85.95;94909.04;106588;1276;22563;-81
2023/11/18 04:52:08;;;;;;;1.30;0.40;;;;;;;1.58;85.92;94906.25;106588;1276;23330;-81
2023/11/18 04:54:36;;;;;;;1.70;0.80;;;;;;;1.57;86.11;94903.30;106589;1259;24345;-81
2023/11/18 04:57:04;;;;;;;0.40;0.20;;;;;;;1.54;85.67;94905.73;106653;1276;24249;-79
2023/11/18 04:59:32;;;;;;;0.50;0.20;;;;;;;1.49;85.91;94905.70;106630;1276;25392;-79
2023/11/18 05:02:02;;;;;;;0.40;0.30;;;;;;;1.43;85.82;94905.84;106575;1276;22660;-81
2023/11/18 05:04:31;;;;;;;0.60;0.40;;;;;;;1.40;86.22;94907.90;106743;1275;25537;-80
2023/11/18 05:06:59;;;;;;;1.30;0.40;;;;;;;1.35;86.44;94908.55;106594;1276;24285;-81
2023/11/18 05:09:27;;;;;;;0.70;0.40;;;;;;;1.31;86.38;94909.25;106615;1275;24271;-81
2023/11/18 05:11:58;;;;;;;0.90;0.30;;;;;;;1.32;86.69;94914.44;106734;1276;22530;-81
2023/11/18 05:14:26;;;;;;;0.40;0.30;;;;;;;1.32;86.78;94908.73;106646;1276;22836;-82
2023/11/18 05:16:54;;;;;;;0.60;0.30;;;;;;;1.32;86.74;94915.48;106608;1275;22534;-81
2023/11/18 05:19:23;;;;;;;1.00;0.50;;;;;;;1.30;86.90;94918.76;106564;1276;23924;-79
2023/11/18 05:21:51;;;;;;;1.20;0.50;;;;;;;1.32;86.72;94922.24;106597;1276;25295;-81
2023/11/18 05:24:19;;;;;;;1.50;1.00;;;;;;;1.27;86.82;94921.16;106585;1276;22987;-79
2023/11/18 05:26:47;;;;;;;1.50;0.80;;;;;;;1.27;86.85;94923.59;106779;1276;22533;-80
2023/11/18 05:29:16;;;;;;;1.80;0.70;;;;;;;1.27;87.11;94926.02;106649;1276;24234;-81
2023/11/18 05:31:45;;;;;;;1.20;0.50;;;;;;;1.29;87.07;94924.98;106724;1276;22772;-83
2023/11/18 05:34:14;;;;;;;0.90;0.40;;;;;;;1.31;86.87;94927.95;106620;1276;22646;-81
2023/11/18 05:36:42;;;;;;;1.70;0.70;;;;;;;1.28;86.79;94933.30;106664;1276;22522;-82
2023/11/18 05:39:10;;;;;;;0.90;0.50;;;;;;;1.29;86.81;94936.92;106730;1276;24357;-81
2023/11/18 05:41:39;;;;;;;0.90;0.50;;;;;;;1.30;86.69;94932.97;106854;1276;22749;-82
2023/11/18 05:44:09;;;;;;;0.80;0.30;;;;;;;1.26;86.74;94937.09;106804;1276;25422;-79
2023/11/18 05:46:38;;;;;;;0.50;0.30;;;;;;;1.23;86.92;94935.70;106907;1276;22531;-81
2023/11/18 05:49:07;;;;;;;0.90;0.40;;;;;;;1.22;87.05;94937.42;106666;1276;22671;-81
2023/11/18 05:51:36;;;;;;;0.80;0.20;;;;;;;1.24;87.00;94936.21;106644;1276;22590;-80
2023/11/18 05:54:05;;;;;;;0.50;0.50;;;;;;;1.24;86.92;94938.48;106736;1276;25383;-80
2023/11/18 05:56:33;;;;;;;1.20;0.40;;;;;;;1.24;86.95;94937.60;106633;1276;25532;-81
2023/11/18 05:59:02;;;;;;;1.10;0.50;;;;;;;1.22;87.03;94943.30;106647;1276;25248;-82
2023/11/18 06:01:31;;;;;;;1.40;0.70;;;;;;;1.19;87.01;94943.13;106499;1276;22752;-80
2023/11/18 06:04:00;;;;;;;1.20;0.60;;;;;;;1.20;87.07;94946.59;106693;1276;22537;-81
2023/11/18 06:06:31;;;;;;;1.30;0.70;;;;;;;1.23;87.29;94953.70;106653;1276;25734;-80
2023/11/18 06:09:04;;;;;;;1.00;0.60;;;;;;;1.27;87.47;94955.98;106683;1276;22772;-81
2023/11/18 06:11:32;;;;;;;0.90;0.70;;;;;;;1.24;87.04;94956.31;106586;1276;25316;-80
2023/11/18 06:14:01;;;;;;;1.50;0.80;;;;;;;1.23;87.14;94959.27;106604;1276;22566;-81
2023/11/18 06:16:29;;;;;;;0.90;0.70;;;;;;;1.20;87.11;94961.83;106585;1276;22663;-80
2023/11/18 06:18:58;;;;;;;1.60;0.60;;;;;;;1.18;87.02;94965.45;106636;1276;22524;-80
2023/11/18 06:21:30;;;;;;;1.90;0.90;;;;;;;1.16;86.95;94965.10;106595;1276;24080;-80
2023/11/18 06:24:00;;;;;;;1.20;0.70;;;;;;;1.17;86.97;94969.44;106631;1276;22614;-80
2023/11/18 06:26:28;;;;;;;1.40;0.60;;;;;;;1.17;87.14;94972.89;106543;1275;24232;-82
2023/11/18 06:28:57;;;;;;;0.80;0.60;;;;;;;1.19;87.04;94982.77;106691;1276;24232;-80
2023/11/18 06:31:25;;;;;;;2.40;0.50;;;;;;;1.20;87.16;94980.54;106513;1276;22756;-80
2023/11/18 06:33:53;;;;;;;1.10;0.50;;;;;;;1.24;87.22;94981.95;106604;1276;22740;-81
2023/11/18 06:36:22;;;;;;;5.90;1.10;;;;;;;1.24;86.94;94982.13;106691;1271;22538;-81
2023/11/18 06:38:53;;;;;;;2.10;0.80;;;;;;;1.21;87.10;94986.95;106587;1276;25551;-80
2023/11/18 06:46:23;;;;;;;2.20;1.10;;;;;;;1.20;87.48;95000.81;106049;1288;24257;-77
2023/11/18 06:48:57;;;;;;;2.00;1.10;;;;;;;1.24;87.23;95006.21;106099;1288;22656;-81
2023/11/18 06:51:27;;;;;;;6.80;3.90;;;;;;;1.26;87.12;95008.13;105963;1288;25337;-80
2023/11/18 06:53:57;;;;;;;2.00;0.90;;;;;;;1.26;87.13;95011.08;105979;1288;23899;-80
2023/11/18 06:56:26;;;;;;;2.40;1.30;;;;;;;1.27;86.94;95012.65;106774;1275;206309;-80
2023/11/18 06:58:54;;;;;;;0.70;0.40;;;;;;;1.29;87.03;95015.08;107072;1275;24388;-80
2023/11/18 07:01:23;;;;;;;9.40;5.00;;;;;;;1.26;86.54;95015.76;106858;1275;25438;-82
2023/11/18 07:03:52;;;;;;;1.60;1.20;;;;;;;1.30;86.97;95017.52;106701;1275;22598;-82
2023/11/18 07:06:22;;;;;;;1.10;0.60;;;;;;;1.31;86.80;95018.05;106661;1275;23921;-81
2023/11/18 07:08:51;;;;;;;1.00;0.60;;;;;;;1.34;86.83;95020.16;106783;1275;22535;-81
2023/11/18 07:11:22;;;;;;;1.20;0.60;;;;;;;1.32;86.65;95022.21;107140;1275;22544;-79
2023/11/18 07:13:56;;;;;;;0.90;0.80;;;;;;;1.31;86.43;95023.92;106839;1275;22608;-79
2023/11/18 07:16:25;;;;;;;2.10;1.90;;;;;;;1.26;86.31;95023.02;107057;1275;22536;-79
2023/11/18 07:18:53;;;;;;;0.70;0.40;;;;;;;1.16;86.69;95024.16;107171;1275;22526;-83
2023/11/18 07:21:22;;;;;;;0.20;0.20;;;;;;;1.05;87.12;95032.91;107020;1275;25415;-81
2023/11/18 07:23:50;;;;;;;0.90;0.60;;;;;;;0.99;87.51;95036.14;106732;1275;22648;-80
2023/11/18 07:26:19;;;;;;;0.60;0.50;;;;;;;1.00;87.58;95041.35;106674;1275;22552;-80
2023/11/18 07:28:47;;;;;;;0.60;0.30;;;;;;;1.04;87.18;95041.39;106604;1272;22531;-80
2023/11/18 07:31:18;;;;;;;2.40;0.80;;;;;;;1.07;86.86;95044.88;106703;1275;25508;-80
2023/11/18 07:33:49;;;;;;;0.80;0.40;;;;;;;1.08;86.97;95046.27;106655;1275;25249;-80
2023/11/18 07:36:19;;;;;;;0.30;0.20;;;;;;;1.13;87.01;95050.98;106718;1275;24590;-79
2023/11/18 07:38:50;;;;;;;0.30;0.30;;;;;;;1.13;86.80;95056.71;106754;1275;23816;-80
2023/11/18 07:41:23;;;;;;;0.30;0.20;;;;;;;1.11;86.79;95061.54;106786;1275;25297;-79
2023/11/18 07:43:54;;;;;;;0.40;0.20;;;;;;;1.15;86.53;95065.90;106685;1252;25731;-79
2023/11/18 07:46:24;;;;;;;0.60;0.40;;;;;;;1.17;86.64;95073.88;106741;1275;24998;-79
2023/11/18 07:48:52;;;;;;;0.40;0.20;;;;;;;1.17;86.51;95072.15;106673;1275;24216;-80
2023/11/18 07:51:21;;;;;;;0.60;0.40;;;;;;;1.24;86.45;95078.98;106670;1275;22621;-79
2023/11/18 07:53:50;;;;;;;5.60;3.30;;;;;;;1.24;85.85;95081.92;106705;1271;24245;-77
2023/11/18 07:56:18;;;;;;;7.40;5.10;;;;;;;1.15;85.82;95085.13;106663;1275;25376;-78
2023/11/18 07:58:46;;;;;;;4.00;3.00;;;;;;;1.10;86.13;95088.89;106666;1275;22686;-80
2023/11/18 08:01:18;;;;;;;3.90;2.70;;;;;;;1.12;86.31;95089.77;107075;1275;22659;-79
2023/11/18 08:03:47;;;;;;;2.90;1.60;;;;;;;1.13;86.44;95091.86;106742;1275;23014;-80
2023/11/18 08:06:17;;;;;;;1.50;1.10;;;;;;;1.16;86.62;95097.09;106928;1275;22536;-79
2023/11/18 08:08:47;;;;;;;2.80;0.90;;;;;;;1.18;86.48;95101.61;106645;1275;25270;-79
2023/11/18 08:11:17;;;;;;;6.10;4.80;;;;;;;1.20;86.53;95108.40;106710;1275;25536;-79
2023/11/18 08:13:45;;;;;;;3.60;1.80;;;;;;;1.21;86.24;95107.36;106669;1275;24231;-79
2023/11/18 08:16:14;;;;;;;4.10;3.20;;;;;;;1.23;86.30;95112.58;106673;1275;25331;-79
2023/11/18 08:18:43;;;;;;;2.40;0.90;;;;;;;1.18;86.10;95113.22;106681;1275;22573;-80
2023/11/18 08:21:12;;;;;;;3.30;2.50;;;;;;;1.09;86.61;95114.00;106739;1275;23882;-78
2023/11/18 08:23:41;;;;;;;2.10;1.70;;;;;;;1.11;86.59;95114.38;106523;1275;25393;-80
2023/11/18 08:26:11;;;;;;;3.80;2.90;;;;;;;1.13;86.44;95113.01;106652;1275;22562;-80
2023/11/18 08:28:40;;;;;;;2.80;1.60;;;;;;;1.09;86.29;95119.89;106858;1272;22571;-79
2023/11/18 08:31:09;;;;;;;1.60;0.70;;;;;;;1.11;86.41;95124.58;106687;1275;24224;-80
2023/11/18 08:33:38;;;;;;;1.40;0.70;;;;;;;1.12;86.22;95130.65;106663;1275;25313;-80
2023/11/18 08:36:07;;;;;;;3.20;0.90;;;;;;;1.15;86.19;95133.45;106723;1275;24289;-79
2023/11/18 08:38:35;;;;;;;1.10;0.60;;;;;;;1.20;86.46;95135.08;106746;1275;22636;-80
2023/11/18 08:41:05;;;;;;;43.00;17.10;;;;;;;1.25;86.56;95135.11;106664;1275;25523;-79
2023/11/18 08:43:33;;;;;;;3.50;2.00;;;;;;;1.29;86.22;95135.66;106700;1275;24219;-80
2023/11/18 08:46:01;;;;;;;0.80;0.60;;;;;;;1.32;86.49;95134.67;106644;1275;22537;-80
2023/11/18 08:48:29;;;;;;;1.40;0.50;;;;;;;1.35;86.23;95137.65;106716;1275;22521;-79
2023/11/18 08:50:58;;;;;;;0.70;0.50;;;;;;;1.38;86.25;95136.45;106703;1275;22764;-79
2023/11/18 08:53:26;;;;;;;1.10;0.70;;;;;;;1.41;85.85;95139.08;106695;1266;24268;-80
2023/11/18 08:55:54;;;;;;;4.50;2.00;;;;;;;1.46;86.16;95147.96;106664;1275;22541;-79
2023/11/18 08:58:27;;;;;;;1.10;0.70;;;;;;;1.55;86.15;95152.72;106627;1275;22579;-80
2023/11/18 09:01:13;;;;;;;1.80;1.30;;;;;;;1.61;85.95;95153.30;106690;1275;22685;-80
2023/11/18 09:03:43;;;;;;;3.90;3.40;;;;;;;1.59;85.48;95152.08;106723;1275;22579;-80
2023/11/18 09:06:17;;;;;;;2.10;1.70;;;;;;;1.61;85.55;95155.72;106662;1275;25514;-80
2023/11/18 09:08:57;;;;;;;1.90;1.10;;;;;;;1.57;85.06;95157.42;106635;1275;25351;-80
2023/11/18 09:11:28;;;;;;;2.40;1.00;;;;;;;1.56;85.18;95160.35;106752;1261;25582;-79
2023/11/18 09:13:59;;;;;;;1.20;0.80;;;;;;;1.53;85.30;95159.46;106672;1275;25503;-79
2023/11/18 09:16:29;;;;;;;2.00;0.90;;;;;;;1.53;85.33;95161.89;106631;1275;22653;-79
2023/11/18 09:18:59;;;;;;;2.70;1.30;;;;;;;1.50;85.59;95158.58;106645;1275;22563;-80
2023/11/18 09:21:29;;;;;;;3.20;1.60;;;;;;;1.49;85.67;95157.88;106691;1275;22532;-79
2023/11/18 09:23:58;;;;;;;1.10;0.60;;;;;;;1.47;86.19;95156.46;106688;1275;25408;-79
2023/11/18 09:26:29;;;;;;;2.50;2.10;;;;;;;1.51;86.12;95161.02;106627;1275;22584;-79
2023/11/18 09:29:01;;;;;;;1.20;0.70;;;;;;;1.49;85.98;95160.83;106699;1275;25277;-79
2023/11/18 09:31:33;;;;;;;2.20;0.80;;;;;;;1.52;86.00;95163.44;106746;1271;26668;-80
2023/11/18 09:34:06;;;;;;;0.60;0.60;;;;;;;1.56;86.15;95165.21;106732;1275;23272;-80
2023/11/18 09:36:35;;;;;;;1.20;0.50;;;;;;;1.60;86.22;95168.89;106659;1275;25570;-79
2023/11/18 09:39:04;;;;;;;4.40;2.50;;;;;;;1.65;86.17;95171.20;106656;1275;22568;-80
2023/11/18 09:41:34;;;;;;;1.60;0.80;;;;;;;1.60;85.55;95172.02;106628;1275;22516;-79
2023/11/18 09:44:06;;;;;;;1.10;0.30;;;;;;;1.65;85.70;95171.88;106638;1275;22549;-80
2023/11/18 09:46:40;;;;;;;2.40;0.90;;;;;;;1.66;85.35;95171.55;106676;1275;22526;-80
2023/11/18 09:49:33;;;;;;;1.30;0.70;;;;;;;1.70;85.54;95173.48;106652;1275;25411;-80
2023/11/18 09:52:04;;;;;;;1.20;0.70;;;;;;;1.71;85.33;95177.48;106721;1275;24410;-80
2023/11/18 09:54:52;;;;;;;0.80;0.40;;;;;;;1.69;85.50;95182.68;106636;1275;25389;-77
2023/11/18 09:57:29;;;;;;;0.80;0.70;;;;;;;1.74;85.66;95180.97;106640;1272;24245;-77
2023/11/18 10:00:19;;;;;;;1.20;0.70;;;;;;;1.77;85.67;95187.59;106624;1275;22549;-78
2023/11/18 10:02:50;;;;;;;1.60;1.10;;;;;;;1.81;85.41;95192.14;106696;1275;22526;-77
2023/11/18 10:05:20;;;;;;;0.70;0.60;;;;;;;1.84;85.32;95189.04;106719;1275;22525;-78
2023/11/18 10:07:50;;;;;;;1.80;1.20;;;;;;;1.85;85.24;95191.83;106722;1275;22535;-78
2023/11/18 10:10:20;;;;;;;0.70;0.50;;;;;;;1.86;84.89;95195.30;106658;1275;22526;-78
2023/11/18 10:12:57;;;;;;;0.80;0.60;;;;;;;1.87;84.79;95199.47;106829;1275;22674;-79
2023/11/18 10:15:27;;;;;;;0.90;0.60;;;;;;;1.88;84.92;95194.45;106711;1275;25410;-79
2023/11/18 10:18:22;;;;;;;3.10;2.20;;;;;;;1.90;85.00;95201.23;106613;1275;25253;-78
2023/11/18 10:20:46;;;;;;;1.00;0.70;;;;;;;1.88;84.97;95199.65;106967;1275;22730;-78
2023/11/18 10:23:20;;;;;;;1.40;1.20;;;;;;;1.84;85.17;95204.31;106668;1275;22580;-78
2023/11/18 10:25:56;;;;;;;0.80;0.80;;;;;;;1.89;85.70;95204.17;106713;1275;22524;-78
2023/11/18 10:28:37;;;;;;;2.50;2.30;;;;;;;1.92;85.10;95207.67;106712;1275;25431;-78
2023/11/18 10:31:09;;;;;;;1.60;1.50;;;;;;;1.93;85.43;95214.95;106691;1254;24253;-78
2023/11/18 10:33:41;;;;;;;1.80;1.30;;;;;;;1.95;85.40;95213.06;106717;1275;22601;-79
2023/11/18 10:36:23;;;;;;;1.40;0.90;;;;;;;1.92;85.12;95210.45;106677;1275;22539;-79
2023/11/18 10:38:55;;;;;;;1.40;0.90;;;;;;;1.91;85.82;95209.20;106660;1275;22583;-79
2023/11/18 10:41:25;;;;;;;1.70;1.20;;;;;;;1.90;85.79;95212.67;106684;1275;22519;-77
2023/11/18 10:44:07;;;;;;;1.10;0.70;;;;;;;1.94;85.72;95213.39;106726;1275;24241;-78
2023/11/18 10:46:36;;;;;;;1.50;1.30;;;;;;;1.97;85.69;95219.68;106663;1275;22577;-79
2023/11/18 10:49:09;;;;;;;1.00;0.80;;;;;;;2.00;85.63;95220.73;106677;1275;23892;-78
2023/11/18 10:51:40;;;;;;;1.30;0.80;;;;;;;2.00;85.20;95223.17;106635;1275;25537;-79
2023/11/18 10:54:17;;;;;;;1.50;1.20;;;;;;;2.03;85.40;95227.54;106670;1275;22970;-78
2023/11/18 10:56:47;;;;;;;0.90;0.60;;;;;;;2.08;85.38;95224.45;106686;1275;25434;-78
2023/11/18 10:59:16;;;;;;;1.90;1.10;;;;;;;2.12;85.54;95223.61;106608;1275;22656;-78
2023/11/18 11:01:48;;;;;;;2.00;1.40;;;;;;;2.23;85.55;95216.06;106736;1275;22591;-78
2023/11/18 11:04:20;;;;;;;1.10;0.90;;;;;;;2.30;85.32;95217.85;106645;1275;25442;-78
2023/11/18 11:06:53;;;;;;;2.40;1.20;;;;;;;2.38;85.47;95224.32;106690;1275;25233;-78
2023/11/18 11:09:35;;;;;;;7.80;3.90;;;;;;;2.41;85.31;95221.21;106723;1275;24362;-78
2023/11/18 11:12:14;;;;;;;2.30;1.50;;;;;;;2.48;84.84;95215.71;106600;1275;25288;-78
2023/11/18 11:15:13;;;;;;;2.30;1.20;;;;;;;2.52;84.86;95221.11;106756;1275;22572;-78
2023/11/18 11:17:48;;;;;;;1.40;1.00;;;;;;;2.53;83.92;95223.21;106729;1275;22527;-78
2023/11/18 11:20:26;;;;;;;2.90;1.60;;;;;;;2.59;84.01;95229.49;106674;1275;24078;-81
2023/11/18 11:23:21;;;;;;;6.70;3.40;;;;;;;2.65;84.41;95231.80;106699;1275;25314;-81
2023/11/18 11:26:13;;;;;;;2.90;2.20;;;;;;;2.68;83.81;95239.27;106636;1275;25252;-81
2023/11/18 11:28:49;;;;;;;3.60;2.30;;;;;;;2.65;83.88;95239.78;106665;1275;22537;-81
2023/11/18 11:31:23;;;;;;;2.90;1.90;;;;;;;2.59;84.42;95238.52;106703;1275;25402;-80
2023/11/18 11:33:58;;;;;;;2.00;1.40;;;;;;;2.55;83.91;95244.05;106643;1275;25354;-81
2023/11/18 11:36:33;;;;;;;2.40;1.80;;;;;;;2.51;83.77;95246.28;106731;1275;23892;-77
2023/11/18 11:39:03;;;;;;;3.40;2.30;;;;;;;2.43;83.31;95246.06;106802;1275;24279;-78
2023/11/18 11:41:34;;;;;;;1.80;1.40;;;;;;;2.35;84.08;95245.31;106755;1275;23887;-78
2023/11/18 11:44:05;;;;;;;4.30;2.90;;;;;;;2.26;83.88;95249.92;106782;1275;22530;-78
2023/11/18 11:46:37;;;;;;;5.20;3.40;;;;;;;2.20;84.78;95252.82;106682;1275;24277;-79
2023/11/18 11:49:17;;;;;;;1.80;1.30;;;;;;;2.17;85.14;95257.49;106659;1275;22526;-79
2023/11/18 11:51:50;;;;;;;2.00;1.00;;;;;;;2.10;84.90;95258.31;106648;1275;22663;-79
2023/11/18 11:54:26;;;;;;;1.40;1.10;;;;;;;2.05;84.83;95266.24;106638;1275;22683;-82
2023/11/18 11:57:00;;;;;;;1.20;0.90;;;;;;;2.05;85.01;95266.40;106607;1275;22770;-82